sensor_id;sensor_type;location;lat;lon;timestamp;P1;durP1;ratioP1;P2;durP2;ratioP2
38937;SDS011;24727;51.974;20.868;2023-06-24T00:01:41;15.77;;;7.20;;
38937;SDS011;24727;51.974;20.868;2023-06-24T00:04:07;9.25;;;6.80;;
38937;SDS011;24727;51.974;20.868;2023-06-24T00:06:33;9.40;;;7.07;;
38937;SDS011;24727;51.974;20.868;2023-06-24T00:08:59;9.80;;;6.22;;
38937;SDS011;24727;51.974;20.868;2023-06-24T00:11:29;6.82;;;5.13;;
38937;SDS011;24727;51.974;20.868;2023-06-24T00:13:56;10.43;;;4.93;;
38937;SDS011;24727;51.974;20.868;2023-06-24T00:16:22;8.52;;;5.53;;
38937;SDS011;24727;51.974;20.868;2023-06-24T00:18:51;7.75;;;5.30;;
38937;SDS011;24727;51.974;20.868;2023-06-24T00:21:18;6.72;;;4.13;;
38937;SDS011;24727;51.974;20.868;2023-06-24T00:23:44;6.45;;;4.63;;
38937;SDS011;24727;51.974;20.868;2023-06-24T00:26:14;5.97;;;4.03;;
38937;SDS011;24727;51.974;20.868;2023-06-24T00:28:41;6.82;;;4.60;;
38937;SDS011;24727;51.974;20.868;2023-06-24T00:31:07;6.40;;;4.53;;
38937;SDS011;24727;51.974;20.868;2023-06-24T00:33:33;8.00;;;4.78;;
38937;SDS011;24727;51.974;20.868;2023-06-24T00:36:02;6.72;;;4.50;;
38937;SDS011;24727;51.974;20.868;2023-06-24T00:38:29;6.15;;;4.22;;
38937;SDS011;24727;51.974;20.868;2023-06-24T00:40:58;6.38;;;4.38;;
38937;SDS011;24727;51.974;20.868;2023-06-24T00:43:25;6.03;;;3.90;;
38937;SDS011;24727;51.974;20.868;2023-06-24T00:45:52;6.45;;;4.07;;
38937;SDS011;24727;51.974;20.868;2023-06-24T00:48:18;7.13;;;4.20;;
38937;SDS011;24727;51.974;20.868;2023-06-24T00:50:47;5.78;;;4.18;;
38937;SDS011;24727;51.974;20.868;2023-06-24T00:53:17;6.13;;;4.13;;
38937;SDS011;24727;51.974;20.868;2023-06-24T00:55:47;7.93;;;4.57;;
38937;SDS011;24727;51.974;20.868;2023-06-24T00:58:14;9.10;;;4.40;;
38937;SDS011;24727;51.974;20.868;2023-06-24T01:00:44;6.72;;;4.32;;
38937;SDS011;24727;51.974;20.868;2023-06-24T01:03:11;6.85;;;4.40;;
38937;SDS011;24727;51.974;20.868;2023-06-24T01:05:41;4.82;;;3.47;;
38937;SDS011;24727;51.974;20.868;2023-06-24T01:08:08;5.07;;;3.70;;
38937;SDS011;24727;51.974;20.868;2023-06-24T01:10:36;5.65;;;3.90;;
38937;SDS011;24727;51.974;20.868;2023-06-24T01:13:03;7.32;;;4.18;;
38937;SDS011;24727;51.974;20.868;2023-06-24T01:15:29;8.75;;;3.88;;
38937;SDS011;24727;51.974;20.868;2023-06-24T01:18:02;6.45;;;3.88;;
38937;SDS011;24727;51.974;20.868;2023-06-24T01:28:41;5.07;;;4.25;;
38937;SDS011;24727;51.974;20.868;2023-06-24T01:31:36;5.65;;;4.10;;
38937;SDS011;24727;51.974;20.868;2023-06-24T01:36:37;8.13;;;4.03;;
38937;SDS011;24727;51.974;20.868;2023-06-24T01:39:08;5.68;;;3.92;;
38937;SDS011;24727;51.974;20.868;2023-06-24T01:41:47;5.72;;;4.10;;
38937;SDS011;24727;51.974;20.868;2023-06-24T01:44:21;4.97;;;3.72;;
38937;SDS011;24727;51.974;20.868;2023-06-24T01:46:48;6.65;;;3.90;;
38937;SDS011;24727;51.974;20.868;2023-06-24T01:49:17;6.55;;;4.50;;
38937;SDS011;24727;51.974;20.868;2023-06-24T01:51:46;7.13;;;3.65;;
38937;SDS011;24727;51.974;20.868;2023-06-24T01:54:19;7.03;;;4.07;;
38937;SDS011;24727;51.974;20.868;2023-06-24T01:56:47;6.47;;;4.50;;
38937;SDS011;24727;51.974;20.868;2023-06-24T01:59:17;4.63;;;4.10;;
38937;SDS011;24727;51.974;20.868;2023-06-24T02:01:46;7.35;;;4.25;;
38937;SDS011;24727;51.974;20.868;2023-06-24T02:04:13;6.85;;;4.57;;
38937;SDS011;24727;51.974;20.868;2023-06-24T02:06:41;5.22;;;4.10;;
38937;SDS011;24727;51.974;20.868;2023-06-24T02:09:08;9.27;;;4.05;;
38937;SDS011;24727;51.974;20.868;2023-06-24T02:11:36;5.35;;;4.40;;
38937;SDS011;24727;51.974;20.868;2023-06-24T02:14:04;6.32;;;4.07;;
38937;SDS011;24727;51.974;20.868;2023-06-24T02:16:33;4.82;;;3.88;;
38937;SDS011;24727;51.974;20.868;2023-06-24T02:19:00;5.60;;;4.35;;
38937;SDS011;24727;51.974;20.868;2023-06-24T02:21:27;8.20;;;4.72;;
38937;SDS011;24727;51.974;20.868;2023-06-24T02:23:54;4.35;;;3.78;;
38937;SDS011;24727;51.974;20.868;2023-06-24T02:26:22;5.90;;;3.97;;
38937;SDS011;24727;51.974;20.868;2023-06-24T02:28:51;7.90;;;4.22;;
38937;SDS011;24727;51.974;20.868;2023-06-24T02:31:18;9.75;;;4.50;;
38937;SDS011;24727;51.974;20.868;2023-06-24T02:33:45;10.95;;;4.18;;
38937;SDS011;24727;51.974;20.868;2023-06-24T02:36:11;5.90;;;4.28;;
38937;SDS011;24727;51.974;20.868;2023-06-24T02:38:37;4.57;;;4.05;;
38937;SDS011;24727;51.974;20.868;2023-06-24T02:41:03;4.95;;;4.22;;
38937;SDS011;24727;51.974;20.868;2023-06-24T02:43:30;5.97;;;4.78;;
38937;SDS011;24727;51.974;20.868;2023-06-24T02:45:59;5.38;;;4.10;;
38937;SDS011;24727;51.974;20.868;2023-06-24T02:48:28;7.20;;;5.07;;
38937;SDS011;24727;51.974;20.868;2023-06-24T02:50:57;9.90;;;4.80;;
38937;SDS011;24727;51.974;20.868;2023-06-24T02:53:24;6.75;;;4.45;;
38937;SDS011;24727;51.974;20.868;2023-06-24T02:55:51;8.18;;;4.50;;
38937;SDS011;24727;51.974;20.868;2023-06-24T02:58:19;4.93;;;4.30;;
38937;SDS011;24727;51.974;20.868;2023-06-24T03:00:46;6.28;;;4.32;;
38937;SDS011;24727;51.974;20.868;2023-06-24T03:03:16;6.57;;;4.72;;
38937;SDS011;24727;51.974;20.868;2023-06-24T03:05:43;5.60;;;4.68;;
38937;SDS011;24727;51.974;20.868;2023-06-24T03:08:10;7.93;;;4.60;;
38937;SDS011;24727;51.974;20.868;2023-06-24T03:10:40;7.75;;;4.53;;
38937;SDS011;24727;51.974;20.868;2023-06-24T03:13:06;5.97;;;5.20;;
38937;SDS011;24727;51.974;20.868;2023-06-24T03:15:32;6.57;;;4.40;;
38937;SDS011;24727;51.974;20.868;2023-06-24T03:18:00;9.02;;;5.20;;
38937;SDS011;24727;51.974;20.868;2023-06-24T03:20:26;6.85;;;4.38;;
38937;SDS011;24727;51.974;20.868;2023-06-24T03:22:52;6.82;;;4.43;;
38937;SDS011;24727;51.974;20.868;2023-06-24T03:25:18;7.10;;;4.45;;
38937;SDS011;24727;51.974;20.868;2023-06-24T03:27:51;5.78;;;4.45;;
38937;SDS011;24727;51.974;20.868;2023-06-24T03:30:17;6.47;;;4.75;;
38937;SDS011;24727;51.974;20.868;2023-06-24T03:32:44;9.27;;;5.75;;
38937;SDS011;24727;51.974;20.868;2023-06-24T03:35:12;6.55;;;4.85;;
38937;SDS011;24727;51.974;20.868;2023-06-24T03:37:38;7.30;;;4.97;;
38937;SDS011;24727;51.974;20.868;2023-06-24T03:40:04;5.68;;;4.80;;
38937;SDS011;24727;51.974;20.868;2023-06-24T03:42:31;6.15;;;4.72;;
38937;SDS011;24727;51.974;20.868;2023-06-24T03:44:57;9.43;;;4.40;;
38937;SDS011;24727;51.974;20.868;2023-06-24T03:47:23;8.88;;;4.35;;
38937;SDS011;24727;51.974;20.868;2023-06-24T03:49:49;6.32;;;4.85;;
38937;SDS011;24727;51.974;20.868;2023-06-24T03:52:16;5.88;;;4.43;;
38937;SDS011;24727;51.974;20.868;2023-06-24T03:54:43;6.32;;;4.93;;
38937;SDS011;24727;51.974;20.868;2023-06-24T03:57:08;5.38;;;4.47;;
38937;SDS011;24727;51.974;20.868;2023-06-24T03:59:34;7.97;;;4.43;;
38937;SDS011;24727;51.974;20.868;2023-06-24T04:02:00;5.75;;;4.70;;
38937;SDS011;24727;51.974;20.868;2023-06-24T04:04:26;6.75;;;4.68;;
38937;SDS011;24727;51.974;20.868;2023-06-24T04:06:52;5.80;;;4.47;;
38937;SDS011;24727;51.974;20.868;2023-06-24T04:09:19;5.53;;;4.32;;
38937;SDS011;24727;51.974;20.868;2023-06-24T04:11:46;6.72;;;4.60;;
38937;SDS011;24727;51.974;20.868;2023-06-24T04:14:12;7.47;;;5.05;;
38937;SDS011;24727;51.974;20.868;2023-06-24T04:16:38;7.18;;;4.63;;
38937;SDS011;24727;51.974;20.868;2023-06-24T04:19:05;10.13;;;4.95;;
38937;SDS011;24727;51.974;20.868;2023-06-24T04:21:32;7.05;;;4.78;;
38937;SDS011;24727;51.974;20.868;2023-06-24T04:24:00;6.80;;;4.70;;
38937;SDS011;24727;51.974;20.868;2023-06-24T04:26:26;8.65;;;5.60;;
38937;SDS011;24727;51.974;20.868;2023-06-24T04:28:52;6.60;;;5.03;;
38937;SDS011;24727;51.974;20.868;2023-06-24T04:31:18;8.65;;;5.40;;
38937;SDS011;24727;51.974;20.868;2023-06-24T04:33:44;8.18;;;5.40;;
38937;SDS011;24727;51.974;20.868;2023-06-24T04:36:10;9.27;;;5.00;;
38937;SDS011;24727;51.974;20.868;2023-06-24T04:38:36;6.57;;;4.93;;
38937;SDS011;24727;51.974;20.868;2023-06-24T04:41:02;6.15;;;5.03;;
38937;SDS011;24727;51.974;20.868;2023-06-24T04:43:35;8.68;;;5.78;;
38937;SDS011;24727;51.974;20.868;2023-06-24T04:48:34;5.72;;;4.68;;
38937;SDS011;24727;51.974;20.868;2023-06-24T04:51:01;5.30;;;4.38;;
38937;SDS011;24727;51.974;20.868;2023-06-24T04:53:27;13.55;;;5.10;;
38937;SDS011;24727;51.974;20.868;2023-06-24T04:55:54;5.78;;;4.70;;
38937;SDS011;24727;51.974;20.868;2023-06-24T04:58:21;6.55;;;4.38;;
38937;SDS011;24727;51.974;20.868;2023-06-24T05:00:46;6.20;;;4.68;;
38937;SDS011;24727;51.974;20.868;2023-06-24T05:03:13;5.43;;;4.50;;
38937;SDS011;24727;51.974;20.868;2023-06-24T05:05:39;7.35;;;4.80;;
38937;SDS011;24727;51.974;20.868;2023-06-24T05:08:05;5.38;;;4.35;;
38937;SDS011;24727;51.974;20.868;2023-06-24T05:10:31;7.50;;;5.22;;
38937;SDS011;24727;51.974;20.868;2023-06-24T05:12:57;5.90;;;4.93;;
38937;SDS011;24727;51.974;20.868;2023-06-24T05:15:23;8.93;;;4.90;;
38937;SDS011;24727;51.974;20.868;2023-06-24T05:17:49;8.70;;;5.00;;
38937;SDS011;24727;51.974;20.868;2023-06-24T05:20:15;6.43;;;5.00;;
38937;SDS011;24727;51.974;20.868;2023-06-24T05:22:42;6.97;;;4.55;;
38937;SDS011;24727;51.974;20.868;2023-06-24T05:25:09;8.48;;;4.88;;
38937;SDS011;24727;51.974;20.868;2023-06-24T05:27:35;7.05;;;5.00;;
38937;SDS011;24727;51.974;20.868;2023-06-24T05:30:01;7.82;;;4.95;;
38937;SDS011;24727;51.974;20.868;2023-06-24T05:32:27;7.70;;;5.18;;
38937;SDS011;24727;51.974;20.868;2023-06-24T05:34:53;9.60;;;5.47;;
38937;SDS011;24727;51.974;20.868;2023-06-24T05:37:19;7.93;;;4.95;;
38937;SDS011;24727;51.974;20.868;2023-06-24T05:39:45;6.78;;;4.88;;
38937;SDS011;24727;51.974;20.868;2023-06-24T05:42:11;6.93;;;4.88;;
38937;SDS011;24727;51.974;20.868;2023-06-24T05:44:37;6.82;;;5.00;;
38937;SDS011;24727;51.974;20.868;2023-06-24T05:47:04;10.05;;;5.47;;
38937;SDS011;24727;51.974;20.868;2023-06-24T05:49:29;7.72;;;5.38;;
38937;SDS011;24727;51.974;20.868;2023-06-24T05:51:56;8.70;;;5.15;;
38937;SDS011;24727;51.974;20.868;2023-06-24T05:54:23;5.75;;;5.13;;
38937;SDS011;24727;51.974;20.868;2023-06-24T05:56:49;8.02;;;6.38;;
38937;SDS011;24727;51.974;20.868;2023-06-24T05:59:15;9.82;;;5.03;;
38937;SDS011;24727;51.974;20.868;2023-06-24T06:01:41;5.43;;;4.45;;
38937;SDS011;24727;51.974;20.868;2023-06-24T06:04:07;5.80;;;4.65;;
38937;SDS011;24727;51.974;20.868;2023-06-24T06:06:34;7.03;;;4.85;;
38937;SDS011;24727;51.974;20.868;2023-06-24T06:09:00;8.02;;;5.05;;
38937;SDS011;24727;51.974;20.868;2023-06-24T06:11:27;5.68;;;4.70;;
38937;SDS011;24727;51.974;20.868;2023-06-24T06:13:53;6.25;;;5.18;;
38937;SDS011;24727;51.974;20.868;2023-06-24T06:16:20;5.30;;;4.60;;
38937;SDS011;24727;51.974;20.868;2023-06-24T06:18:46;5.85;;;4.38;;
38937;SDS011;24727;51.974;20.868;2023-06-24T06:21:12;7.45;;;4.55;;
38937;SDS011;24727;51.974;20.868;2023-06-24T06:23:38;6.25;;;4.45;;
38937;SDS011;24727;51.974;20.868;2023-06-24T06:26:04;7.53;;;4.90;;
38937;SDS011;24727;51.974;20.868;2023-06-24T06:28:30;5.28;;;4.53;;
38937;SDS011;24727;51.974;20.868;2023-06-24T06:30:56;9.82;;;4.60;;
38937;SDS011;24727;51.974;20.868;2023-06-24T06:33:24;6.38;;;4.53;;
38937;SDS011;24727;51.974;20.868;2023-06-24T06:35:50;8.60;;;4.57;;
38937;SDS011;24727;51.974;20.868;2023-06-24T06:38:17;6.13;;;4.40;;
38937;SDS011;24727;51.974;20.868;2023-06-24T06:40:43;4.47;;;3.90;;
38937;SDS011;24727;51.974;20.868;2023-06-24T06:43:09;6.22;;;4.50;;
38937;SDS011;24727;51.974;20.868;2023-06-24T06:45:35;5.50;;;4.00;;
38937;SDS011;24727;51.974;20.868;2023-06-24T06:48:01;10.88;;;4.78;;
38937;SDS011;24727;51.974;20.868;2023-06-24T06:50:31;6.93;;;3.92;;
38937;SDS011;24727;51.974;20.868;2023-06-24T06:52:58;4.50;;;4.05;;
38937;SDS011;24727;51.974;20.868;2023-06-24T06:55:24;4.93;;;4.22;;
38937;SDS011;24727;51.974;20.868;2023-06-24T06:57:51;5.35;;;4.53;;
38937;SDS011;24727;51.974;20.868;2023-06-24T07:00:17;5.32;;;4.15;;
38937;SDS011;24727;51.974;20.868;2023-06-24T07:02:43;5.35;;;3.45;;
38937;SDS011;24727;51.974;20.868;2023-06-24T07:05:09;4.78;;;3.72;;
38937;SDS011;24727;51.974;20.868;2023-06-24T07:07:39;8.75;;;6.07;;
38937;SDS011;24727;51.974;20.868;2023-06-24T07:10:05;5.70;;;3.85;;
38937;SDS011;24727;51.974;20.868;2023-06-24T07:12:35;4.30;;;3.70;;
38937;SDS011;24727;51.974;20.868;2023-06-24T07:15:01;5.25;;;3.95;;
38937;SDS011;24727;51.974;20.868;2023-06-24T07:17:28;8.50;;;4.45;;
38937;SDS011;24727;51.974;20.868;2023-06-24T07:19:54;6.00;;;3.95;;
38937;SDS011;24727;51.974;20.868;2023-06-24T07:22:20;8.73;;;4.53;;
38937;SDS011;24727;51.974;20.868;2023-06-24T07:24:45;6.57;;;4.47;;
38937;SDS011;24727;51.974;20.868;2023-06-24T07:27:11;4.30;;;3.70;;
38937;SDS011;24727;51.974;20.868;2023-06-24T07:29:37;5.68;;;4.05;;
38937;SDS011;24727;51.974;20.868;2023-06-24T07:32:04;6.07;;;4.60;;
38937;SDS011;24727;51.974;20.868;2023-06-24T07:34:33;5.25;;;4.18;;
38937;SDS011;24727;51.974;20.868;2023-06-24T07:37:00;7.13;;;4.32;;
38937;SDS011;24727;51.974;20.868;2023-06-24T07:39:26;5.60;;;3.85;;
38937;SDS011;24727;51.974;20.868;2023-06-24T07:41:51;4.82;;;4.10;;
38937;SDS011;24727;51.974;20.868;2023-06-24T07:44:19;4.55;;;4.10;;
38937;SDS011;24727;51.974;20.868;2023-06-24T07:46:45;6.55;;;4.30;;
38937;SDS011;24727;51.974;20.868;2023-06-24T07:49:13;4.97;;;3.78;;
38937;SDS011;24727;51.974;20.868;2023-06-24T07:51:39;6.30;;;4.50;;
38937;SDS011;24727;51.974;20.868;2023-06-24T07:54:05;4.85;;;4.25;;
38937;SDS011;24727;51.974;20.868;2023-06-24T07:56:31;6.72;;;4.75;;
38937;SDS011;24727;51.974;20.868;2023-06-24T07:58:57;9.02;;;3.90;;
38937;SDS011;24727;51.974;20.868;2023-06-24T08:01:23;5.13;;;4.53;;
38937;SDS011;24727;51.974;20.868;2023-06-24T08:03:49;6.43;;;3.70;;
38937;SDS011;24727;51.974;20.868;2023-06-24T08:06:15;6.70;;;4.30;;
38937;SDS011;24727;51.974;20.868;2023-06-24T08:08:41;5.38;;;4.00;;
38937;SDS011;24727;51.974;20.868;2023-06-24T08:11:08;5.25;;;3.90;;
38937;SDS011;24727;51.974;20.868;2023-06-24T08:13:42;8.13;;;3.97;;
38937;SDS011;24727;51.974;20.868;2023-06-24T08:16:09;4.57;;;3.97;;
38937;SDS011;24727;51.974;20.868;2023-06-24T08:18:35;4.63;;;3.80;;
38937;SDS011;24727;51.974;20.868;2023-06-24T08:21:02;4.28;;;3.83;;
38937;SDS011;24727;51.974;20.868;2023-06-24T08:23:27;6.07;;;4.40;;
38937;SDS011;24727;51.974;20.868;2023-06-24T08:25:53;7.45;;;3.92;;
38937;SDS011;24727;51.974;20.868;2023-06-24T08:28:20;4.05;;;3.55;;
38937;SDS011;24727;51.974;20.868;2023-06-24T08:30:47;4.28;;;3.88;;
38937;SDS011;24727;51.974;20.868;2023-06-24T08:33:13;6.32;;;4.57;;
38937;SDS011;24727;51.974;20.868;2023-06-24T08:35:39;4.97;;;4.10;;
38937;SDS011;24727;51.974;20.868;2023-06-24T08:38:05;8.15;;;4.32;;
38937;SDS011;24727;51.974;20.868;2023-06-24T08:40:32;5.53;;;3.88;;
38937;SDS011;24727;51.974;20.868;2023-06-24T08:42:59;4.55;;;3.72;;
38937;SDS011;24727;51.974;20.868;2023-06-24T08:45:25;4.28;;;3.58;;
38937;SDS011;24727;51.974;20.868;2023-06-24T08:47:51;4.43;;;4.00;;
38937;SDS011;24727;51.974;20.868;2023-06-24T08:50:19;5.20;;;3.80;;
38937;SDS011;24727;51.974;20.868;2023-06-24T08:52:51;4.78;;;4.28;;
38937;SDS011;24727;51.974;20.868;2023-06-24T08:55:19;5.90;;;4.10;;
38937;SDS011;24727;51.974;20.868;2023-06-24T08:57:47;6.55;;;3.83;;
38937;SDS011;24727;51.974;20.868;2023-06-24T09:00:13;4.82;;;3.90;;
38937;SDS011;24727;51.974;20.868;2023-06-24T09:02:40;6.57;;;4.18;;
38937;SDS011;24727;51.974;20.868;2023-06-24T09:05:06;5.18;;;3.97;;
38937;SDS011;24727;51.974;20.868;2023-06-24T09:07:33;6.72;;;3.78;;
38937;SDS011;24727;51.974;20.868;2023-06-24T09:09:59;7.55;;;4.10;;
38937;SDS011;24727;51.974;20.868;2023-06-24T09:12:25;5.32;;;4.07;;
38937;SDS011;24727;51.974;20.868;2023-06-24T09:14:52;4.68;;;4.00;;
38937;SDS011;24727;51.974;20.868;2023-06-24T09:17:18;4.22;;;3.83;;
38937;SDS011;24727;51.974;20.868;2023-06-24T09:19:48;5.65;;;3.72;;
38937;SDS011;24727;51.974;20.868;2023-06-24T09:22:14;5.80;;;3.55;;
38937;SDS011;24727;51.974;20.868;2023-06-24T09:24:44;5.53;;;4.45;;
38937;SDS011;24727;51.974;20.868;2023-06-24T09:27:16;4.75;;;4.20;;
38937;SDS011;24727;51.974;20.868;2023-06-24T09:29:46;6.50;;;4.13;;
38937;SDS011;24727;51.974;20.868;2023-06-24T09:32:13;5.05;;;3.83;;
38937;SDS011;24727;51.974;20.868;2023-06-24T09:34:39;7.88;;;3.58;;
38937;SDS011;24727;51.974;20.868;2023-06-24T09:37:06;4.97;;;3.75;;
38937;SDS011;24727;51.974;20.868;2023-06-24T09:39:35;5.00;;;4.13;;
38937;SDS011;24727;51.974;20.868;2023-06-24T09:42:03;3.88;;;3.47;;
38937;SDS011;24727;51.974;20.868;2023-06-24T09:44:30;6.90;;;3.70;;
38937;SDS011;24727;51.974;20.868;2023-06-24T09:46:58;9.30;;;3.53;;
38937;SDS011;24727;51.974;20.868;2023-06-24T09:49:25;6.85;;;3.33;;
38937;SDS011;24727;51.974;20.868;2023-06-24T09:51:55;5.28;;;3.45;;
38937;SDS011;24727;51.974;20.868;2023-06-24T09:54:26;4.85;;;3.30;;
38937;SDS011;24727;51.974;20.868;2023-06-24T09:56:53;8.43;;;3.60;;
38937;SDS011;24727;51.974;20.868;2023-06-24T09:59:21;6.20;;;3.85;;
38937;SDS011;24727;51.974;20.868;2023-06-24T10:01:49;3.40;;;3.10;;
38937;SDS011;24727;51.974;20.868;2023-06-24T10:04:19;5.68;;;3.90;;
38937;SDS011;24727;51.974;20.868;2023-06-24T10:06:49;5.10;;;3.97;;
38937;SDS011;24727;51.974;20.868;2023-06-24T10:09:16;5.60;;;3.55;;
38937;SDS011;24727;51.974;20.868;2023-06-24T10:11:45;4.90;;;3.65;;
38937;SDS011;24727;51.974;20.868;2023-06-24T10:14:13;4.55;;;4.07;;
38937;SDS011;24727;51.974;20.868;2023-06-24T10:16:41;3.95;;;3.45;;
38937;SDS011;24727;51.974;20.868;2023-06-24T10:19:08;4.25;;;3.67;;
38937;SDS011;24727;51.974;20.868;2023-06-24T10:21:44;5.75;;;3.50;;
38937;SDS011;24727;51.974;20.868;2023-06-24T10:24:33;6.25;;;4.03;;
38937;SDS011;24727;51.974;20.868;2023-06-24T10:27:07;4.53;;;3.75;;
38937;SDS011;24727;51.974;20.868;2023-06-24T10:29:35;8.43;;;3.90;;
38937;SDS011;24727;51.974;20.868;2023-06-24T10:32:06;6.47;;;4.20;;
38937;SDS011;24727;51.974;20.868;2023-06-24T10:37:19;5.60;;;4.32;;
38937;SDS011;24727;51.974;20.868;2023-06-24T10:39:52;4.97;;;4.45;;
38937;SDS011;24727;51.974;20.868;2023-06-24T10:47:35;7.78;;;4.40;;
38937;SDS011;24727;51.974;20.868;2023-06-24T10:50:02;7.93;;;4.20;;
38937;SDS011;24727;51.974;20.868;2023-06-24T10:52:29;7.40;;;4.50;;
38937;SDS011;24727;51.974;20.868;2023-06-24T10:54:57;6.30;;;4.00;;
38937;SDS011;24727;51.974;20.868;2023-06-24T10:57:24;6.55;;;4.10;;
38937;SDS011;24727;51.974;20.868;2023-06-24T10:59:52;5.00;;;4.05;;
38937;SDS011;24727;51.974;20.868;2023-06-24T11:02:23;8.57;;;4.35;;
38937;SDS011;24727;51.974;20.868;2023-06-24T11:04:50;5.97;;;4.40;;
38937;SDS011;24727;51.974;20.868;2023-06-24T11:07:22;6.00;;;4.72;;
38937;SDS011;24727;51.974;20.868;2023-06-24T11:09:54;5.15;;;4.47;;
38937;SDS011;24727;51.974;20.868;2023-06-24T11:12:26;5.72;;;4.60;;
38937;SDS011;24727;51.974;20.868;2023-06-24T11:14:55;8.57;;;4.72;;
38937;SDS011;24727;51.974;20.868;2023-06-24T11:17:26;5.57;;;4.68;;
38937;SDS011;24727;51.974;20.868;2023-06-24T11:19:53;7.45;;;5.00;;
38937;SDS011;24727;51.974;20.868;2023-06-24T11:22:21;9.55;;;5.20;;
38937;SDS011;24727;51.974;20.868;2023-06-24T11:24:47;7.32;;;6.00;;
38937;SDS011;24727;51.974;20.868;2023-06-24T11:27:14;9.95;;;5.82;;
38937;SDS011;24727;51.974;20.868;2023-06-24T11:29:40;6.50;;;5.80;;
38937;SDS011;24727;51.974;20.868;2023-06-24T11:32:07;8.48;;;6.95;;
38937;SDS011;24727;51.974;20.868;2023-06-24T11:34:34;9.80;;;6.07;;
38937;SDS011;24727;51.974;20.868;2023-06-24T11:37:14;8.50;;;5.97;;
38937;SDS011;24727;51.974;20.868;2023-06-24T11:39:42;7.88;;;6.68;;
38937;SDS011;24727;51.974;20.868;2023-06-24T11:42:11;12.25;;;7.07;;
38937;SDS011;24727;51.974;20.868;2023-06-24T11:44:42;11.05;;;7.35;;
38937;SDS011;24727;51.974;20.868;2023-06-24T11:47:09;10.55;;;7.00;;
38937;SDS011;24727;51.974;20.868;2023-06-24T11:49:52;10.35;;;7.50;;
38937;SDS011;24727;51.974;20.868;2023-06-24T11:52:31;12.93;;;6.88;;
38937;SDS011;24727;51.974;20.868;2023-06-24T11:55:00;10.60;;;7.05;;
38937;SDS011;24727;51.974;20.868;2023-06-24T12:00:14;10.23;;;7.15;;
38937;SDS011;24727;51.974;20.868;2023-06-24T12:02:40;10.75;;;7.50;;
38937;SDS011;24727;51.974;20.868;2023-06-24T12:05:06;9.00;;;6.95;;
38937;SDS011;24727;51.974;20.868;2023-06-24T12:07:33;8.68;;;7.07;;
38937;SDS011;24727;51.974;20.868;2023-06-24T12:10:00;7.97;;;6.80;;
38937;SDS011;24727;51.974;20.868;2023-06-24T12:12:26;10.00;;;7.10;;
38937;SDS011;24727;51.974;20.868;2023-06-24T12:14:51;9.68;;;7.47;;
38937;SDS011;24727;51.974;20.868;2023-06-24T12:17:18;9.13;;;7.32;;
38937;SDS011;24727;51.974;20.868;2023-06-24T12:19:44;9.38;;;7.30;;
38937;SDS011;24727;51.974;20.868;2023-06-24T12:22:12;9.35;;;7.07;;
38937;SDS011;24727;51.974;20.868;2023-06-24T12:24:38;10.75;;;6.97;;
38937;SDS011;24727;51.974;20.868;2023-06-24T12:27:05;8.25;;;6.50;;
38937;SDS011;24727;51.974;20.868;2023-06-24T12:29:31;9.80;;;7.00;;
38937;SDS011;24727;51.974;20.868;2023-06-24T12:31:58;10.68;;;7.43;;
38937;SDS011;24727;51.974;20.868;2023-06-24T12:34:23;8.35;;;7.22;;
38937;SDS011;24727;51.974;20.868;2023-06-24T12:36:49;12.23;;;7.82;;
38937;SDS011;24727;51.974;20.868;2023-06-24T12:39:15;9.23;;;7.28;;
38937;SDS011;24727;51.974;20.868;2023-06-24T12:41:41;10.95;;;7.20;;
38937;SDS011;24727;51.974;20.868;2023-06-24T12:44:07;8.07;;;7.03;;
38937;SDS011;24727;51.974;20.868;2023-06-24T12:46:33;8.63;;;7.10;;
38937;SDS011;24727;51.974;20.868;2023-06-24T12:48:59;11.75;;;7.88;;
38937;SDS011;24727;51.974;20.868;2023-06-24T12:51:25;10.65;;;8.38;;
38937;SDS011;24727;51.974;20.868;2023-06-24T12:53:52;13.27;;;9.43;;
38937;SDS011;24727;51.974;20.868;2023-06-24T12:56:19;13.68;;;9.20;;
38937;SDS011;24727;51.974;20.868;2023-06-24T12:58:45;15.18;;;11.23;;
38937;SDS011;24727;51.974;20.868;2023-06-24T13:01:11;16.63;;;11.85;;
38937;SDS011;24727;51.974;20.868;2023-06-24T13:03:37;18.30;;;13.32;;
38937;SDS011;24727;51.974;20.868;2023-06-24T13:06:02;21.48;;;14.90;;
38937;SDS011;24727;51.974;20.868;2023-06-24T13:08:29;14.57;;;10.23;;
38937;SDS011;24727;51.974;20.868;2023-06-24T13:10:56;9.57;;;7.53;;
38937;SDS011;24727;51.974;20.868;2023-06-24T13:13:22;15.68;;;7.25;;
38937;SDS011;24727;51.974;20.868;2023-06-24T13:15:48;9.82;;;8.00;;
38937;SDS011;24727;51.974;20.868;2023-06-24T13:18:15;9.82;;;7.47;;
38937;SDS011;24727;51.974;20.868;2023-06-24T13:20:43;8.48;;;6.53;;
38937;SDS011;24727;51.974;20.868;2023-06-24T13:23:11;12.73;;;6.68;;
38937;SDS011;24727;51.974;20.868;2023-06-24T13:25:37;9.02;;;7.07;;
38937;SDS011;24727;51.974;20.868;2023-06-24T13:28:04;9.68;;;6.72;;
38937;SDS011;24727;51.974;20.868;2023-06-24T13:30:32;7.47;;;6.75;;
38937;SDS011;24727;51.974;20.868;2023-06-24T13:32:58;8.63;;;6.38;;
38937;SDS011;24727;51.974;20.868;2023-06-24T13:35:24;10.43;;;6.53;;
38937;SDS011;24727;51.974;20.868;2023-06-24T13:37:50;8.10;;;7.18;;
38937;SDS011;24727;51.974;20.868;2023-06-24T13:40:16;7.45;;;6.38;;
38937;SDS011;24727;51.974;20.868;2023-06-24T13:42:41;7.95;;;7.03;;
38937;SDS011;24727;51.974;20.868;2023-06-24T13:45:07;6.72;;;6.03;;
38937;SDS011;24727;51.974;20.868;2023-06-24T13:47:34;11.43;;;6.53;;
38937;SDS011;24727;51.974;20.868;2023-06-24T13:50:00;9.80;;;6.32;;
38937;SDS011;24727;51.974;20.868;2023-06-24T13:52:27;7.15;;;6.18;;
38937;SDS011;24727;51.974;20.868;2023-06-24T13:54:54;6.75;;;5.70;;
38937;SDS011;24727;51.974;20.868;2023-06-24T13:57:20;10.52;;;6.60;;
38937;SDS011;24727;51.974;20.868;2023-06-24T13:59:46;10.80;;;6.50;;
38937;SDS011;24727;51.974;20.868;2023-06-24T14:02:13;8.32;;;6.28;;
38937;SDS011;24727;51.974;20.868;2023-06-24T14:04:39;8.95;;;5.97;;
38937;SDS011;24727;51.974;20.868;2023-06-24T14:07:06;5.18;;;4.40;;
38937;SDS011;24727;51.974;20.868;2023-06-24T14:09:33;7.65;;;4.70;;
38937;SDS011;24727;51.974;20.868;2023-06-24T14:11:59;7.05;;;3.70;;
38937;SDS011;24727;51.974;20.868;2023-06-24T14:14:26;4.57;;;3.95;;
38937;SDS011;24727;51.974;20.868;2023-06-24T14:16:52;4.13;;;3.63;;
38937;SDS011;24727;51.974;20.868;2023-06-24T14:19:18;4.50;;;3.58;;
38937;SDS011;24727;51.974;20.868;2023-06-24T14:21:45;4.18;;;2.85;;
38937;SDS011;24727;51.974;20.868;2023-06-24T14:24:11;5.70;;;2.80;;
38937;SDS011;24727;51.974;20.868;2023-06-24T14:26:37;5.90;;;4.38;;
38937;SDS011;24727;51.974;20.868;2023-06-24T14:29:04;4.78;;;3.20;;
38937;SDS011;24727;51.974;20.868;2023-06-24T14:31:30;4.05;;;2.75;;
38937;SDS011;24727;51.974;20.868;2023-06-24T14:33:56;3.90;;;2.60;;
38937;SDS011;24727;51.974;20.868;2023-06-24T14:36:22;3.10;;;2.80;;
38937;SDS011;24727;51.974;20.868;2023-06-24T14:38:48;4.65;;;2.85;;
38937;SDS011;24727;51.974;20.868;2023-06-24T14:41:15;3.72;;;2.40;;
38937;SDS011;24727;51.974;20.868;2023-06-24T14:43:47;6.40;;;3.20;;
38937;SDS011;24727;51.974;20.868;2023-06-24T14:46:13;3.47;;;2.50;;
38937;SDS011;24727;51.974;20.868;2023-06-24T14:48:39;6.53;;;3.20;;
38937;SDS011;24727;51.974;20.868;2023-06-24T14:51:05;3.90;;;2.95;;
38937;SDS011;24727;51.974;20.868;2023-06-24T14:53:32;4.43;;;3.13;;
38937;SDS011;24727;51.974;20.868;2023-06-24T14:55:57;5.90;;;3.42;;
38937;SDS011;24727;51.974;20.868;2023-06-24T14:58:24;5.00;;;3.78;;